Time;durP1;ratioP1;P1;durP2;ratioP2;P2;SDS_P1;SDS_P2;PMS_P1;PMS_P2;Temp;Humidity;BMP_temperature;BMP_pressure;BME280_temperature;BME280_humidity;BME280_pressure;Samples;Min_cycle;Max_cycle;Signal;HPM_P1;HPM_P2
2023/02/03 00:02:26;;;;;;;4.07;3.75;;;;;;;;;;5112984;28;20195;-60
2023/02/03 00:04:53;;;;;;;4.72;3.08;;;;;;;;;;5112801;28;20224;-60
2023/02/03 00:07:20;;;;;;;5.20;2.53;;;;;;;;;;5113185;28;20190;-58
2023/02/03 00:09:47;;;;;;;4.43;3.35;;;;;;;;;;5113014;28;20281;-60
2023/02/03 00:12:14;;;;;;;4.97;2.92;;;;;;;;;;5112925;28;20278;-60
2023/02/03 00:14:42;;;;;;;7.10;3.10;;;;;;;;;;5112885;28;20189;-60
2023/02/03 00:17:09;;;;;;;5.07;2.80;;;;;;;;;;5114325;28;20189;-60
2023/02/03 00:19:36;;;;;;;4.13;3.17;;;;;;;;;;5116739;28;20616;-60
2023/02/03 00:22:03;;;;;;;4.07;2.78;;;;;;;;;;5116897;28;20282;-60
2023/02/03 00:24:30;;;;;;;4.78;3.25;;;;;;;;;;5116727;28;20225;-60
2023/02/03 00:26:57;;;;;;;5.53;3.05;;;;;;;;;;5116761;28;20190;-60
2023/02/03 00:29:24;;;;;;;4.35;3.60;;;;;;;;;;5116500;28;20553;-60
2023/02/03 00:31:53;;;;;;;6.00;3.20;;;;;;;;;;5116421;28;20672;-60
2023/02/03 00:34:20;;;;;;;6.57;3.45;;;;;;;;;;5116462;28;20189;-60
2023/02/03 00:36:47;;;;;;;8.50;3.45;;;;;;;;;;5116651;28;20195;-60
2023/02/03 00:39:14;;;;;;;5.55;3.85;;;;;;;;;;5116424;28;20195;-60
2023/02/03 00:41:41;;;;;;;11.02;3.45;;;;;;;;;;5116447;28;20197;-60
2023/02/03 00:44:08;;;;;;;5.50;3.92;;;;;;;;;;5116249;28;20245;-60
2023/02/03 00:46:35;;;;;;;6.82;3.97;;;;;;;;;;5115956;28;20223;-60
2023/02/03 00:49:04;;;;;;;6.45;3.72;;;;;;;;;;5116340;28;20190;-60
2023/02/03 00:51:31;;;;;;;9.32;4.13;;;;;;;;;;5116285;28;20187;-60
2023/02/03 00:53:58;;;;;;;6.85;4.22;;;;;;;;;;5116177;28;20277;-60
2023/02/03 00:56:25;;;;;;;6.38;4.20;;;;;;;;;;5116088;28;20190;-60
2023/02/03 00:58:52;;;;;;;6.18;4.45;;;;;;;;;;5115851;28;20662;-60
2023/02/03 01:01:19;;;;;;;8.85;3.83;;;;;;;;;;5116277;28;20196;-60
2023/02/03 01:03:45;;;;;;;7.80;4.20;;;;;;;;;;5116009;28;20217;-60
2023/02/03 01:06:15;;;;;;;8.88;4.10;;;;;;;;;;5115791;28;20657;-60
2023/02/03 01:08:43;;;;;;;10.77;4.57;;;;;;;;;;5115957;28;20288;-60
2023/02/03 01:11:12;;;;;;;6.57;4.28;;;;;;;;;;5115797;28;20252;-60
2023/02/03 01:13:38;;;;;;;6.10;3.40;;;;;;;;;;5115710;28;20196;-60
2023/02/03 01:16:08;;;;;;;6.10;3.40;;;;;;;;;;5115818;28;20187;-60
2023/02/03 01:18:35;;;;;;;5.68;3.40;;;;;;;;;;5115800;28;20202;-60
2023/02/03 01:21:05;;;;;;;12.15;3.60;;;;;;;;;;5115770;28;20191;-60
2023/02/03 01:23:33;;;;;;;8.18;3.00;;;;;;;;;;5115495;28;20218;-60
2023/02/03 01:26:02;;;;;;;6.32;3.47;;;;;;;;;;5115486;28;20204;-61
2023/02/03 01:28:29;;;;;;;6.07;3.50;;;;;;;;;;5115616;28;20221;-60
2023/02/03 01:30:56;;;;;;;8.13;3.33;;;;;;;;;;5115646;28;20197;-60
2023/02/03 01:33:23;;;;;;;10.90;3.38;;;;;;;;;;5115477;28;20556;-60
2023/02/03 01:35:50;;;;;;;9.32;3.28;;;;;;;;;;5115307;28;20194;-60
2023/02/03 01:38:17;;;;;;;6.95;3.33;;;;;;;;;;5115272;28;20198;-60
2023/02/03 01:40:45;;;;;;;10.82;3.92;;;;;;;;;;5115087;28;20537;-60
2023/02/03 01:43:12;;;;;;;4.93;3.15;;;;;;;;;;5115238;28;20190;-60
2023/02/03 01:45:40;;;;;;;9.68;4.00;;;;;;;;;;5115123;28;20313;-60
2023/02/03 01:48:08;;;;;;;5.80;3.22;;;;;;;;;;5115130;28;20213;-60
2023/02/03 01:50:36;;;;;;;10.38;3.55;;;;;;;;;;5115063;28;20186;-61
2023/02/03 01:53:05;;;;;;;6.20;3.60;;;;;;;;;;5114864;28;20193;-61
2023/02/03 01:55:35;;;;;;;7.80;4.55;;;;;;;;;;5115184;28;20712;-61
2023/02/03 01:58:07;;;;;;;5.50;4.00;;;;;;;;;;5114934;28;20196;-61
2023/02/03 02:00:34;;;;;;;9.27;3.95;;;;;;;;;;5114774;28;20296;-61
2023/02/03 02:03:01;;;;;;;7.55;4.10;;;;;;;;;;5114782;28;20289;-60
2023/02/03 02:05:30;;;;;;;8.80;4.35;;;;;;;;;;5114677;28;20225;-61
2023/02/03 02:07:58;;;;;;;6.60;4.40;;;;;;;;;;5114598;28;20193;-60
2023/02/03 02:10:25;;;;;;;8.05;3.95;;;;;;;;;;5114734;28;20277;-60
2023/02/03 02:12:55;;;;;;;5.32;4.30;;;;;;;;;;5114722;28;20655;-61
2023/02/03 02:15:27;;;;;;;4.38;3.60;;;;;;;;;;5114497;28;20209;-60
2023/02/03 02:18:05;;;;;;;5.47;3.65;;;;;;;;;;5114772;28;20364;-60
2023/02/03 02:20:46;;;;;;;11.07;4.13;;;;;;;;;;5114485;28;20198;-61
2023/02/03 02:23:31;;;;;;;6.50;3.80;;;;;;;;;;5114492;28;20194;-60
2023/02/03 02:26:13;;;;;;;6.40;3.85;;;;;;;;;;5114671;28;20195;-60
2023/02/03 02:29:01;;;;;;;6.03;3.67;;;;;;;;;;5114384;28;20202;-60
2023/02/03 02:31:46;;;;;;;5.70;3.05;;;;;;;;;;5114481;28;20594;-61
2023/02/03 02:34:20;;;;;;;3.70;3.03;;;;;;;;;;5114242;28;20200;-61
2023/02/03 02:36:52;;;;;;;3.15;2.95;;;;;;;;;;5114205;28;20194;-61
2023/02/03 02:39:21;;;;;;;3.40;3.10;;;;;;;;;;5113969;28;20190;-60
2023/02/03 02:41:51;;;;;;;3.55;3.25;;;;;;;;;;5114226;28;20277;-61
2023/02/03 02:44:23;;;;;;;3.33;3.03;;;;;;;;;;5114013;28;20218;-60
2023/02/03 02:46:51;;;;;;;2.97;2.78;;;;;;;;;;5113806;28;20727;-60
2023/02/03 02:49:22;;;;;;;3.40;2.63;;;;;;;;;;5113953;28;20186;-61
2023/02/03 02:51:49;;;;;;;2.40;2.30;;;;;;;;;;5114157;28;20231;-61
2023/02/03 02:54:17;;;;;;;2.90;2.70;;;;;;;;;;5113985;28;20557;-60
2023/02/03 02:56:45;;;;;;;2.22;2.03;;;;;;;;;;5113834;28;20194;-60
2023/02/03 02:59:13;;;;;;;4.07;2.50;;;;;;;;;;5114190;28;20481;-60
2023/02/03 03:01:40;;;;;;;2.47;2.28;;;;;;;;;;5113781;28;20616;-60
2023/02/03 03:04:08;;;;;;;2.42;1.70;;;;;;;;;;5113452;28;20229;-60
2023/02/03 03:06:39;;;;;;;2.15;1.95;;;;;;;;;;5113794;28;20192;-60
2023/02/03 03:09:08;;;;;;;1.75;1.65;;;;;;;;;;5113738;28;20194;-60
2023/02/03 03:11:39;;;;;;;2.60;1.90;;;;;;;;;;5113658;28;20198;-61
2023/02/03 03:14:07;;;;;;;1.80;1.42;;;;;;;;;;5113547;28;20198;-61
2023/02/03 03:16:35;;;;;;;5.40;2.33;;;;;;;;;;5113408;28;20197;-61
2023/02/03 03:19:05;;;;;;;2.05;1.85;;;;;;;;;;5113542;28;20186;-61
2023/02/03 03:21:34;;;;;;;1.95;1.77;;;;;;;;;;5113395;28;20654;-61
2023/02/03 03:24:05;;;;;;;1.70;1.60;;;;;;;;;;5113266;28;20735;-61
2023/02/03 03:26:35;;;;;;;2.00;1.90;;;;;;;;;;5113508;28;20201;-61
2023/02/03 03:29:07;;;;;;;3.70;1.50;;;;;;;;;;5113188;28;20702;-61
2023/02/03 03:31:34;;;;;;;2.80;1.55;;;;;;;;;;5113600;28;20624;-61
2023/02/03 03:34:01;;;;;;;2.65;1.85;;;;;;;;;;5113402;28;20205;-61
2023/02/03 03:36:30;;;;;;;2.60;1.90;;;;;;;;;;5113603;28;20190;-61
2023/02/03 03:39:01;;;;;;;2.10;2.00;;;;;;;;;;5113237;28;20196;-60
2023/02/03 03:41:34;;;;;;;2.72;2.53;;;;;;;;;;5113277;28;20197;-60
2023/02/03 03:44:03;;;;;;;3.03;2.83;;;;;;;;;;5113365;28;20236;-60
2023/02/03 03:46:32;;;;;;;6.28;3.03;;;;;;;;;;5112335;28;20228;-60
2023/02/03 03:49:01;;;;;;;2.95;2.75;;;;;;;;;;5112416;28;20190;-61
2023/02/03 03:51:30;;;;;;;2.80;2.60;;;;;;;;;;5112784;28;20194;-61
2023/02/03 03:53:59;;;;;;;2.85;2.45;;;;;;;;;;5115797;28;20548;-60
2023/02/03 03:56:27;;;;;;;2.67;2.47;;;;;;;;;;5116058;28;20277;-60
2023/02/03 03:58:57;;;;;;;2.42;2.22;;;;;;;;;;5115881;28;20194;-61
2023/02/03 04:01:25;;;;;;;1.90;1.75;;;;;;;;;;5115893;28;20211;-60
2023/02/03 04:03:54;;;;;;;2.13;2.03;;;;;;;;;;5115571;28;20286;-60
2023/02/03 04:06:21;;;;;;;2.17;2.08;;;;;;;;;;5115676;28;20191;-61
2023/02/03 04:08:48;;;;;;;2.50;2.30;;;;;;;;;;5115519;28;20555;-60
2023/02/03 04:12:00;;;;;;;2.13;2.03;;;;;;;;;;5115747;28;20281;-61
2023/02/03 04:14:03;;;;;;;2.00;1.90;;;;;;;;;;5115411;28;20642;-61
2023/02/03 04:16:30;;;;;;;1.98;1.88;;;;;;;;;;5115565;28;20199;-61
2023/02/03 04:18:57;;;;;;;1.77;1.67;;;;;;;;;;5115304;28;20190;-60
2023/02/03 04:21:24;;;;;;;2.17;1.92;;;;;;;;;;5115264;28;20280;-60
2023/02/03 04:23:51;;;;;;;1.80;1.70;;;;;;;;;;5115560;28;20210;-60
2023/02/03 04:26:18;;;;;;;1.80;1.70;;;;;;;;;;5115292;28;20218;-61
2023/02/03 04:28:45;;;;;;;2.75;1.65;;;;;;;;;;5115386;28;20194;-60
2023/02/03 04:31:13;;;;;;;3.28;1.63;;;;;;;;;;5115191;28;20189;-60
2023/02/03 04:33:40;;;;;;;1.92;1.65;;;;;;;;;;5115211;28;20194;-60
2023/02/03 04:36:07;;;;;;;1.60;1.50;;;;;;;;;;5115400;28;20200;-61
2023/02/03 04:38:34;;;;;;;1.77;1.67;;;;;;;;;;5115196;28;20204;-60
2023/02/03 04:41:01;;;;;;;1.85;1.75;;;;;;;;;;5115472;28;20633;-60
2023/02/03 04:43:28;;;;;;;1.90;1.80;;;;;;;;;;5115113;28;20199;-60
2023/02/03 04:45:55;;;;;;;2.40;2.20;;;;;;;;;;5081794;28;957927;-61
2023/02/03 04:48:23;;;;;;;2.40;2.20;;;;;;;;;;5116241;28;20645;-61
2023/02/03 04:50:50;;;;;;;2.22;2.13;;;;;;;;;;5116037;28;20657;-60
2023/02/03 04:53:17;;;;;;;3.35;2.50;;;;;;;;;;5116298;28;20196;-61
2023/02/03 04:55:47;;;;;;;2.30;2.20;;;;;;;;;;5116047;28;20190;-60
2023/02/03 04:58:14;;;;;;;3.92;3.60;;;;;;;;;;5116406;28;20556;-61
2023/02/03 05:00:41;;;;;;;3.08;2.88;;;;;;;;;;5115867;28;20193;-61
2023/02/03 05:03:08;;;;;;;3.50;3.30;;;;;;;;;;5115649;28;20190;-60
2023/02/03 05:05:36;;;;;;;4.03;3.53;;;;;;;;;;5115969;28;20219;-60
2023/02/03 05:08:03;;;;;;;4.20;3.90;;;;;;;;;;5115906;28;20388;-60
2023/02/03 05:10:31;;;;;;;4.10;3.80;;;;;;;;;;5115909;28;20187;-60
2023/02/03 05:12:58;;;;;;;4.80;4.40;;;;;;;;;;5115785;28;20200;-60
2023/02/03 05:15:25;;;;;;;4.05;3.80;;;;;;;;;;5115968;28;20283;-61
2023/02/03 05:17:52;;;;;;;4.10;3.80;;;;;;;;;;5115835;28;20193;-61
2023/02/03 05:20:19;;;;;;;4.20;3.90;;;;;;;;;;5115696;28;20197;-60
2023/02/03 05:22:47;;;;;;;5.22;4.88;;;;;;;;;;5115502;28;20195;-61
2023/02/03 05:25:14;;;;;;;5.97;5.47;;;;;;;;;;5115388;28;20236;-61
2023/02/03 05:27:41;;;;;;;5.50;5.07;;;;;;;;;;5115388;28;20200;-60
2023/02/03 05:30:22;;;;;;;6.80;6.30;;;;;;;;;;5115709;28;20261;-62
2023/02/03 05:32:49;;;;;;;7.07;6.47;;;;;;;;;;5115579;28;20460;-61
2023/02/03 05:35:16;;;;;;;5.97;5.47;;;;;;;;;;5115303;28;20199;-62
2023/02/03 05:37:44;;;;;;;6.78;6.07;;;;;;;;;;5115677;28;20202;-61
2023/02/03 05:42:58;;;;;;;7.55;6.93;;;;;;;;;;5115294;28;20982;-61
2023/02/03 05:45:25;;;;;;;7.30;6.68;;;;;;;;;;5114933;28;20226;-62
2023/02/03 05:47:52;;;;;;;9.23;8.25;;;;;;;;;;5115259;28;20716;-61
2023/02/03 05:50:18;;;;;;;10.23;8.90;;;;;;;;;;5115024;28;20195;-60
2023/02/03 05:52:45;;;;;;;10.68;9.65;;;;;;;;;;5114932;28;20197;-62
2023/02/03 05:55:14;;;;;;;13.20;9.47;;;;;;;;;;5115144;28;20545;-62
2023/02/03 05:57:40;;;;;;;10.20;9.20;;;;;;;;;;5115029;28;20829;-61
2023/02/03 06:00:10;;;;;;;12.80;9.90;;;;;;;;;;5114798;28;20190;-61
2023/02/03 06:02:37;;;;;;;9.88;8.88;;;;;;;;;;5114698;28;20448;-62
2023/02/03 06:05:04;;;;;;;11.80;9.67;;;;;;;;;;5114603;28;20720;-62
2023/02/03 06:07:31;;;;;;;33.97;21.52;;;;;;;;;;5114845;28;20448;-62
2023/02/03 06:09:57;;;;;;;13.40;10.43;;;;;;;;;;5114779;28;20193;-62
2023/02/03 06:12:26;;;;;;;12.77;11.13;;;;;;;;;;5114667;28;20451;-62
2023/02/03 06:14:53;;;;;;;13.60;11.00;;;;;;;;;;5113836;28;20484;-61
2023/02/03 06:17:19;;;;;;;14.70;11.87;;;;;;;;;;5114497;28;20447;-62
2023/02/03 06:19:46;;;;;;;15.60;11.50;;;;;;;;;;5114420;28;20792;-62
2023/02/03 06:22:13;;;;;;;21.42;13.10;;;;;;;;;;5114278;28;20194;-61
2023/02/03 06:24:40;;;;;;;15.57;12.13;;;;;;;;;;5114404;28;20202;-62
2023/02/03 06:27:07;;;;;;;14.65;11.30;;;;;;;;;;5114356;28;20445;-62
2023/02/03 06:29:35;;;;;;;17.67;13.73;;;;;;;;;;5114167;28;20688;-61
2023/02/03 06:32:02;;;;;;;18.03;13.73;;;;;;;;;;5114158;28;20932;-61
2023/02/03 06:34:29;;;;;;;22.00;14.80;;;;;;;;;;5113901;28;20821;-62
2023/02/03 06:36:56;;;;;;;20.90;15.40;;;;;;;;;;5114284;28;20456;-62
2023/02/03 06:39:22;;;;;;;22.23;15.10;;;;;;;;;;5114195;28;20461;-61
2023/02/03 06:41:51;;;;;;;18.15;13.98;;;;;;;;;;5113990;28;20187;-61
2023/02/03 06:44:18;;;;;;;24.10;15.60;;;;;;;;;;5114014;28;20222;-59
2023/02/03 06:46:46;;;;;;;18.77;14.13;;;;;;;;;;5113547;28;20697;-59
2023/02/03 06:49:13;;;;;;;18.50;13.80;;;;;;;;;;5113829;28;20272;-60
2023/02/03 06:51:42;;;;;;;21.37;14.03;;;;;;;;;;5113982;28;20445;-60
2023/02/03 06:54:10;;;;;;;18.60;14.20;;;;;;;;;;5113968;28;20449;-60
2023/02/03 06:56:37;;;;;;;19.03;14.90;;;;;;;;;;5114152;28;21030;-60
2023/02/03 06:59:04;;;;;;;18.55;13.82;;;;;;;;;;5113899;28;20443;-60
2023/02/03 07:01:31;;;;;;;19.00;13.93;;;;;;;;;;5113770;28;20286;-62
2023/02/03 07:03:59;;;;;;;17.37;12.97;;;;;;;;;;5113870;28;20880;-61
2023/02/03 07:06:28;;;;;;;17.20;14.73;;;;;;;;;;5113788;28;20572;-61
2023/02/03 07:08:55;;;;;;;19.57;14.97;;;;;;;;;;5113497;28;20448;-61
2023/02/03 07:11:22;;;;;;;19.03;14.43;;;;;;;;;;5113540;28;20850;-61
2023/02/03 07:13:51;;;;;;;19.33;14.47;;;;;;;;;;5113422;28;20475;-61
2023/02/03 07:16:17;;;;;;;20.33;15.43;;;;;;;;;;5113364;28;20444;-61
2023/02/03 07:18:45;;;;;;;18.07;13.67;;;;;;;;;;5113466;28;20187;-61
2023/02/03 07:21:13;;;;;;;19.23;13.93;;;;;;;;;;5113100;28;20819;-61
2023/02/03 07:23:40;;;;;;;15.07;13.40;;;;;;;;;;5113230;28;20479;-61
2023/02/03 07:26:08;;;;;;;15.37;13.67;;;;;;;;;;5112769;28;20487;-61
2023/02/03 07:28:35;;;;;;;19.70;14.80;;;;;;;;;;5112855;28;20559;-61
2023/02/03 07:31:03;;;;;;;21.83;15.57;;;;;;;;;;5113236;28;20897;-61
2023/02/03 07:33:30;;;;;;;19.47;15.37;;;;;;;;;;5113092;28;20496;-61
2023/02/03 07:35:58;;;;;;;18.10;15.30;;;;;;;;;;5112958;28;20814;-61
2023/02/03 07:38:26;;;;;;;21.77;15.60;;;;;;;;;;5113010;28;20446;-61
2023/02/03 07:40:53;;;;;;;20.43;15.00;;;;;;;;;;5112967;28;21025;-61
2023/02/03 07:43:20;;;;;;;20.93;15.60;;;;;;;;;;5112835;28;20442;-61
2023/02/03 07:45:47;;;;;;;20.83;15.97;;;;;;;;;;5112685;28;20493;-61
2023/02/03 07:48:14;;;;;;;19.47;14.90;;;;;;;;;;5112988;28;20479;-61
2023/02/03 07:50:41;;;;;;;21.03;14.17;;;;;;;;;;5112912;28;20455;-61
2023/02/03 07:53:08;;;;;;;16.97;13.80;;;;;;;;;;5112905;28;20449;-61
2023/02/03 07:55:38;;;;;;;19.93;13.90;;;;;;;;;;5112768;28;20503;-60
2023/02/03 07:58:04;;;;;;;15.93;12.43;;;;;;;;;;5112808;28;20453;-61
2023/02/03 08:00:31;;;;;;;15.17;13.60;;;;;;;;;;5112807;28;20788;-61
2023/02/03 08:02:58;;;;;;;19.43;13.67;;;;;;;;;;5112874;28;20540;-62
2023/02/03 08:05:25;;;;;;;18.00;13.03;;;;;;;;;;5112516;28;21024;-61
2023/02/03 08:07:52;;;;;;;17.37;13.77;;;;;;;;;;5112515;28;20462;-61
2023/02/03 08:10:19;;;;;;;13.80;11.80;;;;;;;;;;5112363;28;20450;-61
2023/02/03 08:12:47;;;;;;;14.03;12.53;;;;;;;;;;5112598;28;20541;-61
2023/02/03 08:15:14;;;;;;;18.20;12.37;;;;;;;;;;5112591;28;20446;-61
2023/02/03 08:17:43;;;;;;;14.53;12.73;;;;;;;;;;5112167;28;20937;-61
2023/02/03 08:20:12;;;;;;;19.20;12.23;;;;;;;;;;5112473;28;20460;-62
2023/02/03 08:22:39;;;;;;;16.30;14.68;;;;;;;;;;5111396;28;20533;-61
2023/02/03 08:25:06;;;;;;;13.93;12.40;;;;;;;;;;5112176;28;20647;-64
2023/02/03 08:27:33;;;;;;;12.17;10.83;;;;;;;;;;5112097;28;20556;-63
2023/02/03 08:30:01;;;;;;;13.50;10.57;;;;;;;;;;5112267;28;20450;-63
2023/02/03 08:32:28;;;;;;;12.13;10.40;;;;;;;;;;5116919;28;20533;-61
2023/02/03 08:34:55;;;;;;;13.57;10.40;;;;;;;;;;5129469;28;20476;-62
2023/02/03 08:37:24;;;;;;;13.47;9.60;;;;;;;;;;5128707;27;20445;-61
2023/02/03 08:39:51;;;;;;;11.73;9.37;;;;;;;;;;5115460;28;20456;-61
2023/02/03 08:42:18;;;;;;;10.90;9.30;;;;;;;;;;5127562;27;20799;-64
2023/02/03 08:44:45;;;;;;;8.77;7.97;;;;;;;;;;5122586;27;20452;-63
2023/02/03 08:47:13;;;;;;;8.30;7.50;;;;;;;;;;5124979;27;20473;-66
2023/02/03 08:49:40;;;;;;;8.80;7.90;;;;;;;;;;5129787;27;20446;-64
2023/02/03 08:52:07;;;;;;;7.90;7.20;;;;;;;;;;5128163;27;20502;-65
2023/02/03 08:54:35;;;;;;;8.73;7.93;;;;;;;;;;5129037;27;20459;-66
2023/02/03 08:57:01;;;;;;;7.73;7.03;;;;;;;;;;5115317;28;20800;-62
2023/02/03 08:59:29;;;;;;;9.23;7.70;;;;;;;;;;5115524;28;20964;-61
2023/02/03 09:01:58;;;;;;;8.00;6.70;;;;;;;;;;5115620;28;20560;-62
2023/02/03 09:04:27;;;;;;;7.50;6.80;;;;;;;;;;5115541;27;20446;-62
2023/02/03 09:06:54;;;;;;;8.47;7.57;;;;;;;;;;5131887;27;20583;-65
2023/02/03 09:09:21;;;;;;;6.73;6.23;;;;;;;;;;5129716;27;20442;-64
2023/02/03 09:11:48;;;;;;;8.00;7.20;;;;;;;;;;5124065;27;20452;-61
2023/02/03 09:14:15;;;;;;;5.60;5.20;;;;;;;;;;5129961;27;20448;-60
2023/02/03 09:16:42;;;;;;;7.30;6.60;;;;;;;;;;5118394;27;20442;-60
2023/02/03 09:19:09;;;;;;;7.10;6.40;;;;;;;;;;5115554;28;20548;-61
2023/02/03 09:21:37;;;;;;;6.10;5.57;;;;;;;;;;5115034;28;20446;-60
2023/02/03 09:24:04;;;;;;;8.53;6.27;;;;;;;;;;5115407;28;20544;-61
2023/02/03 09:26:33;;;;;;;6.27;5.77;;;;;;;;;;5114927;28;20908;-61
2023/02/03 09:29:02;;;;;;;6.83;6.23;;;;;;;;;;5121089;27;20907;-63
2023/02/03 09:31:29;;;;;;;7.03;6.33;;;;;;;;;;5114672;28;20879;-61
2023/02/03 09:33:55;;;;;;;6.07;5.50;;;;;;;;;;5115115;28;20452;-61
2023/02/03 09:36:22;;;;;;;5.77;5.27;;;;;;;;;;5114973;28;20450;-62
2023/02/03 09:38:51;;;;;;;5.50;5.10;;;;;;;;;;5114991;28;20865;-61
2023/02/03 09:41:23;;;;;;;6.17;5.57;;;;;;;;;;5114780;28;20453;-61
2023/02/03 09:43:53;;;;;;;5.50;4.97;;;;;;;;;;5114613;28;20454;-62
2023/02/03 09:46:22;;;;;;;5.10;4.70;;;;;;;;;;5114272;28;20487;-70
2023/02/03 09:48:52;;;;;;;5.70;5.17;;;;;;;;;;5113881;28;20447;-60
2023/02/03 09:51:20;;;;;;;5.00;4.60;;;;;;;;;;5114143;28;20476;-63
2023/02/03 09:53:52;;;;;;;5.10;4.70;;;;;;;;;;5114463;28;20460;-61
2023/02/03 09:56:22;;;;;;;5.00;4.53;;;;;;;;;;5114384;28;20450;-62
2023/02/03 09:58:49;;;;;;;6.13;5.10;;;;;;;;;;5118575;27;20433;-62
2023/02/03 10:01:18;;;;;;;5.40;5.00;;;;;;;;;;5123644;27;20437;-61
2023/02/03 10:03:48;;;;;;;9.37;5.27;;;;;;;;;;5124867;27;20445;-61
2023/02/03 10:06:21;;;;;;;4.03;3.73;;;;;;;;;;5114241;28;20470;-65
2023/02/03 10:08:57;;;;;;;4.57;4.13;;;;;;;;;;5114203;28;20449;-60
2023/02/03 10:11:29;;;;;;;8.63;4.43;;;;;;;;;;5114387;28;20473;-62
2023/02/03 10:14:01;;;;;;;4.07;3.77;;;;;;;;;;5124755;27;20834;-63
2023/02/03 10:16:39;;;;;;;4.10;3.80;;;;;;;;;;5134679;27;20535;-60
2023/02/03 10:19:09;;;;;;;5.90;4.57;;;;;;;;;;5134533;27;20440;-59
2023/02/03 10:21:37;;;;;;;4.37;4.07;;;;;;;;;;5134486;27;20536;-63
2023/02/03 10:24:10;;;;;;;3.83;3.53;;;;;;;;;;5134519;27;20501;-63
2023/02/03 10:26:38;;;;;;;5.23;4.73;;;;;;;;;;5134544;27;20762;-60
2023/02/03 10:29:08;;;;;;;5.80;4.10;;;;;;;;;;5134413;27;21007;-61
2023/02/03 10:31:37;;;;;;;5.20;4.27;;;;;;;;;;5134047;27;20817;-60
2023/02/03 10:34:10;;;;;;;3.70;3.40;;;;;;;;;;5134223;27;20449;-60
2023/02/03 10:36:44;;;;;;;4.77;4.00;;;;;;;;;;5125915;27;20457;-61
2023/02/03 10:39:18;;;;;;;4.40;3.80;;;;;;;;;;5121404;27;20449;-59
2023/02/03 10:41:45;;;;;;;3.20;3.00;;;;;;;;;;5123869;27;20440;-60
2023/02/03 10:44:14;;;;;;;3.17;2.97;;;;;;;;;;5119329;27;20446;-61
2023/02/03 10:46:41;;;;;;;3.23;2.57;;;;;;;;;;5122625;27;20496;-61
2023/02/03 10:49:09;;;;;;;3.17;2.97;;;;;;;;;;5120183;27;20488;-62
2023/02/03 10:51:37;;;;;;;5.60;3.23;;;;;;;;;;5130273;27;20437;-61
2023/02/03 10:54:05;;;;;;;3.30;3.00;;;;;;;;;;5117539;27;20449;-60
2023/02/03 10:56:37;;;;;;;3.27;3.07;;;;;;;;;;5123490;27;20460;-61
2023/02/03 10:59:05;;;;;;;8.07;1.80;;;;;;;;;;5122128;27;20551;-68
2023/02/03 11:01:40;;;;;;;6.23;1.77;;;;;;;;;;5122214;27;20452;-64
2023/02/03 11:04:08;;;;;;;7.13;2.27;;;;;;;;;;5112908;28;20506;-64
2023/02/03 11:06:35;;;;;;;4.13;1.50;;;;;;;;;;5112966;28;20473;-66
2023/02/03 11:09:02;;;;;;;7.30;2.30;;;;;;;;;;5112987;28;20449;-61
2023/02/03 11:11:32;;;;;;;4.83;1.30;;;;;;;;;;5111551;28;20532;-62
2023/02/03 11:14:16;;;;;;;5.23;2.50;;;;;;;;;;5112330;28;20529;-60
2023/02/03 11:16:46;;;;;;;4.10;1.90;;;;;;;;;;5114149;27;20499;-64
2023/02/03 11:19:16;;;;;;;6.73;1.10;;;;;;;;;;5122374;27;20444;-60
2023/02/03 11:21:45;;;;;;;8.45;2.10;;;;;;;;;;5122929;27;20449;-62
2023/02/03 11:24:14;;;;;;;7.23;1.97;;;;;;;;;;5119056;27;20186;-61
2023/02/03 11:26:43;;;;;;;6.97;1.80;;;;;;;;;;5121616;27;20471;-60
2023/02/03 11:29:16;;;;;;;4.23;1.47;;;;;;;;;;5118646;27;20549;-61
2023/02/03 11:31:47;;;;;;;4.33;2.33;;;;;;;;;;5128501;27;20444;-60
2023/02/03 11:34:16;;;;;;;4.30;1.90;;;;;;;;;;5112921;28;20459;-60
2023/02/03 11:36:43;;;;;;;5.90;2.60;;;;;;;;;;5112691;28;20470;-60
2023/02/03 11:39:17;;;;;;;7.87;2.20;;;;;;;;;;5112960;28;20448;-59
2023/02/03 11:41:44;;;;;;;10.83;1.90;;;;;;;;;;5119484;28;21057;-63
2023/02/03 11:44:12;;;;;;;7.53;2.33;;;;;;;;;;5133000;28;20531;-57
2023/02/03 11:46:41;;;;;;;9.40;3.17;;;;;;;;;;5132606;28;20477;-56
2023/02/03 11:49:12;;;;;;;6.60;2.37;;;;;;;;;;5133033;28;20448;-57
2023/02/03 11:51:42;;;;;;;9.03;3.43;;;;;;;;;;5132957;28;20441;-55
2023/02/03 11:54:17;;;;;;;10.23;2.17;;;;;;;;;;5132427;28;20828;-57
2023/02/03 11:56:53;;;;;;;11.40;3.07;;;;;;;;;;5132505;28;20978;-57
2023/02/03 11:59:40;;;;;;;17.00;2.50;;;;;;;;;;5133378;28;20955;-56
2023/02/03 12:02:26;;;;;;;8.63;2.17;;;;;;;;;;5133125;28;20456;-57
2023/02/03 12:05:04;;;;;;;8.40;2.30;;;;;;;;;;5133434;28;20448;-56
2023/02/03 12:07:44;;;;;;;11.93;2.87;;;;;;;;;;5133182;28;20477;-57
2023/02/03 12:10:15;;;;;;;16.83;3.67;;;;;;;;;;5133453;28;20488;-59
2023/02/03 12:12:56;;;;;;;8.27;3.07;;;;;;;;;;5134251;27;20444;-57
2023/02/03 12:15:32;;;;;;;14.23;3.77;;;;;;;;;;5137418;27;20502;-57
2023/02/03 12:18:14;;;;;;;19.27;4.00;;;;;;;;;;5137330;27;20458;-58
2023/02/03 12:20:48;;;;;;;7.33;3.47;;;;;;;;;;5137366;27;20603;-58
2023/02/03 12:23:22;;;;;;;14.30;3.77;;;;;;;;;;5137272;27;20574;-58
2023/02/03 12:25:58;;;;;;;8.47;2.93;;;;;;;;;;5137119;27;20444;-57
2023/02/03 12:28:32;;;;;;;17.97;5.90;;;;;;;;;;5136976;27;20487;-58
2023/02/03 12:31:02;;;;;;;12.13;2.97;;;;;;;;;;5137277;27;20537;-57
2023/02/03 12:33:32;;;;;;;20.67;4.00;;;;;;;;;;5137140;27;20454;-57
2023/02/03 12:36:02;;;;;;;15.83;4.83;;;;;;;;;;5137008;27;20483;-58
2023/02/03 12:38:32;;;;;;;18.63;4.47;;;;;;;;;;5136903;27;20819;-58
2023/02/03 12:41:00;;;;;;;20.20;3.70;;;;;;;;;;5136642;27;20447;-58
2023/02/03 12:43:31;;;;;;;16.10;3.53;;;;;;;;;;5136871;27;20445;-58
2023/02/03 12:46:01;;;;;;;18.20;3.77;;;;;;;;;;5136563;27;20563;-57
2023/02/03 12:48:32;;;;;;;16.67;4.30;;;;;;;;;;5136490;27;20999;-58
2023/02/03 12:51:02;;;;;;;12.53;3.70;;;;;;;;;;5136659;27;20451;-58
2023/02/03 12:53:32;;;;;;;16.60;3.40;;;;;;;;;;5136483;27;20535;-57
2023/02/03 12:56:03;;;;;;;17.33;4.50;;;;;;;;;;5136417;27;20453;-57
2023/02/03 12:58:32;;;;;;;12.20;3.60;;;;;;;;;;5136536;27;20449;-58
2023/02/03 13:01:01;;;;;;;25.77;4.33;;;;;;;;;;5136305;27;20544;-58
2023/02/03 13:03:31;;;;;;;12.80;4.03;;;;;;;;;;5136193;27;20488;-58
2023/02/03 13:06:00;;;;;;;18.73;4.10;;;;;;;;;;5136104;27;20936;-56
2023/02/03 13:08:32;;;;;;;7.33;2.37;;;;;;;;;;5136049;27;20509;-58
2023/02/03 13:11:04;;;;;;;6.83;2.00;;;;;;;;;;5135978;27;20452;-58
2023/02/03 13:13:35;;;;;;;6.40;1.92;;;;;;;;;;5136274;27;20455;-56
2023/02/03 13:16:03;;;;;;;6.23;1.90;;;;;;;;;;5136050;27;20285;-57
2023/02/03 13:18:33;;;;;;;9.80;1.85;;;;;;;;;;5135917;27;20539;-58
2023/02/03 13:20:59;;;;;;;6.28;1.92;;;;;;;;;;5136114;27;20250;-55
2023/02/03 13:23:27;;;;;;;6.10;1.90;;;;;;;;;;5135730;27;20556;-57
2023/02/03 13:26:05;;;;;;;3.20;1.90;;;;;;;;;;5135969;27;20447;-58
2023/02/03 13:28:38;;;;;;;7.03;2.10;;;;;;;;;;5135988;27;20676;-57
2023/02/03 13:31:17;;;;;;;5.88;2.33;;;;;;;;;;5135675;27;20194;-57
2023/02/03 13:33:53;;;;;;;7.90;3.30;;;;;;;;;;5135991;27;20190;-57
2023/02/03 13:36:34;;;;;;;9.93;2.55;;;;;;;;;;5135996;27;20479;-58
2023/02/03 13:39:26;;;;;;;9.77;2.83;;;;;;;;;;5135744;27;20280;-57
2023/02/03 13:41:55;;;;;;;7.18;1.98;;;;;;;;;;5135943;27;20280;-57
2023/02/03 13:44:26;;;;;;;9.68;2.42;;;;;;;;;;5135740;27;20580;-57
2023/02/03 13:46:54;;;;;;;9.95;2.80;;;;;;;;;;5135437;27;20190;-58
2023/02/03 13:49:24;;;;;;;11.20;2.50;;;;;;;;;;5135448;27;20219;-56
2023/02/03 13:51:51;;;;;;;8.32;2.78;;;;;;;;;;5135215;27;20193;-58
2023/02/03 13:54:23;;;;;;;8.38;2.00;;;;;;;;;;5135509;27;20194;-57
2023/02/03 13:56:56;;;;;;;12.77;3.17;;;;;;;;;;5135244;27;20247;-56
2023/02/03 13:59:31;;;;;;;13.50;2.37;;;;;;;;;;5135350;27;20237;-56
2023/02/03 14:02:13;;;;;;;12.52;3.05;;;;;;;;;;5135205;27;20443;-58
2023/02/03 14:04:53;;;;;;;6.97;2.90;;;;;;;;;;5134740;27;20200;-58
2023/02/03 14:07:32;;;;;;;14.10;2.50;;;;;;;;;;5135165;27;20870;-56
2023/02/03 14:10:15;;;;;;;12.48;3.00;;;;;;;;;;5135180;27;20803;-57
2023/02/03 14:13:01;;;;;;;8.95;3.20;;;;;;;;;;5134914;27;20194;-57
2023/02/03 14:15:35;;;;;;;13.75;3.63;;;;;;;;;;5135105;27;20194;-57
2023/02/03 14:18:06;;;;;;;12.50;3.28;;;;;;;;;;5134933;27;20195;-57
2023/02/03 14:20:39;;;;;;;14.27;3.10;;;;;;;;;;5134969;27;20614;-57
2023/02/03 14:23:12;;;;;;;11.63;2.90;;;;;;;;;;5134734;27;20338;-58
2023/02/03 14:25:41;;;;;;;15.33;3.27;;;;;;;;;;5134947;27;20574;-58
2023/02/03 14:28:11;;;;;;;18.10;4.50;;;;;;;;;;5134787;27;20536;-58
2023/02/03 14:30:53;;;;;;;18.17;3.77;;;;;;;;;;5134787;27;20451;-57
2023/02/03 14:33:24;;;;;;;19.03;3.93;;;;;;;;;;5133638;27;20450;-58
2023/02/03 14:35:51;;;;;;;19.60;3.40;;;;;;;;;;5134157;27;20518;-58
2023/02/03 14:38:18;;;;;;;17.17;4.93;;;;;;;;;;5134644;27;20448;-58
2023/02/03 14:40:48;;;;;;;17.70;4.03;;;;;;;;;;5134509;27;20464;-58
2023/02/03 14:43:27;;;;;;;13.60;3.37;;;;;;;;;;5134316;27;20962;-57
2023/02/03 14:46:07;;;;;;;16.90;3.73;;;;;;;;;;5134157;27;21052;-59
2023/02/03 14:48:46;;;;;;;20.20;5.40;;;;;;;;;;5134442;27;20472;-58
2023/02/03 14:51:17;;;;;;;21.07;4.37;;;;;;;;;;5134508;27;20484;-58
2023/02/03 14:54:01;;;;;;;15.47;3.40;;;;;;;;;;5134327;27;20559;-58